Les Alyzees — FI8710 — position and weather

sailwx.info

Track history (hours):
 
Tides and Currents Weather Stations Pressure Air Temp Water Temp Dewpoint Dewpoint Depression Visibility Wind Speed Wind Dir Waves Ship Positions

Les Alyzees

Last reported at 2017-Nov-17 04:42 UTC. Time now 2017-Nov-20 07:32 UTC.
Position N 48°44' W 002°22'.

Length 15 m.

Type: Fishing. MMSI: 227323270.

Date/timePositionNaut miles runAvg speedWind from/ knotsBaromVisibWave heightAir tempDewpointWater temp
2017-Nov-17 04:42N 48°44' W 002°22'4 8.8
2017-Nov-17 04:15N 48°41' W 002°27'3 0.2
2017-Nov-16 10:38N 48°38' W 002°29'0 0.0
2017-Nov-16 10:26N 48°38' W 002°29'0 0.1
2017-Nov-16 09:28N 48°38' W 002°29'0 0.4
2017-Nov-16 08:57N 48°38' W 002°29'0 0.7
2017-Nov-16 08:23N 48°38' W 002°29'2 4.5
2017-Nov-16 07:59N 48°40' W 002°29'3 5.4
2017-Nov-16 07:30N 48°41' W 002°25'3 5.8
2017-Nov-16 07:00N 48°42' W 002°21'5 6.1
2017-Nov-16 06:15N 48°43' W 002°14'2 5.0
2017-Nov-16 05:53N 48°44' W 002°12'2 4.3
2017-Nov-16 05:30N 48°45' W 002°10'0 0.3
2017-Nov-16 04:54N 48°45' W 002°10'1 1.4
2017-Nov-16 04:26N 48°45' W 002°11'4 9.4
2017-Nov-16 04:00N 48°44' W 002°17'7 9.5
2017-Nov-16 03:14N 48°40' W 002°27'3 7.8
2017-Nov-16 02:52N 48°38' W 002°29'0 0.0
2017-Nov-14 12:33N 48°38' W 002°29'0 0.0
2017-Nov-14 10:43N 48°38' W 002°29'3 6.1
2017-Nov-14 10:10N 48°41' W 002°27'2 2.0
2017-Nov-14 09:04N 48°43' W 002°25'0 0.7
2017-Nov-14 08:55N 48°43' W 002°25'1 3.4
2017-Nov-14 08:30N 48°43' W 002°23'1 2.0
2017-Nov-14 07:58N 48°43' W 002°24'4 1.1
2017-Nov-14 04:10N 48°39' W 002°29'  
2017-Nov-10 04:49N 48°45' W 002°12'3 8.4
2017-Nov-10 04:27N 48°44' W 002°17'4 8.8
2017-Nov-10 04:00N 48°43' W 002°22'2 3.4
2017-Nov-10 03:27N 48°43' W 002°25'1 1.1
2017-Nov-10 02:59N 48°43' W 002°26'  
Track history (hours):
 
Tides and Currents Weather Stations Pressure Air Temp Water Temp Dewpoint Dewpoint Depression Visibility Wind Speed Wind Dir Waves Ship Positions

Les Alyzees

Last reported at 2017-Nov-17 04:42 UTC. Time now 2017-Nov-20 07:32 UTC.
Position N 48°44' W 002°22'.

Length 15 m.

Type: Fishing. MMSI: 227323270.

Date/timePositionNaut miles runAvg speedWind from/ knotsBaromVisibWave heightAir tempDewpointWater temp
2017-Nov-17 04:42N 48°44' W 002°22'4 8.8
2017-Nov-17 04:15N 48°41' W 002°27'3 0.2
2017-Nov-16 10:38N 48°38' W 002°29'0 0.0
2017-Nov-16 10:26N 48°38' W 002°29'0 0.1
2017-Nov-16 09:28N 48°38' W 002°29'0 0.4
2017-Nov-16 08:57N 48°38' W 002°29'0 0.7
2017-Nov-16 08:23N 48°38' W 002°29'2 4.5
2017-Nov-16 07:59N 48°40' W 002°29'3 5.4
2017-Nov-16 07:30N 48°41' W 002°25'3 5.8
2017-Nov-16 07:00N 48°42' W 002°21'5 6.1
2017-Nov-16 06:15N 48°43' W 002°14'2 5.0
2017-Nov-16 05:53N 48°44' W 002°12'2 4.3
2017-Nov-16 05:30N 48°45' W 002°10'0 0.3
2017-Nov-16 04:54N 48°45' W 002°10'1 1.4
2017-Nov-16 04:26N 48°45' W 002°11'4 9.4
2017-Nov-16 04:00N 48°44' W 002°17'7 9.5
2017-Nov-16 03:14N 48°40' W 002°27'3 7.8
2017-Nov-16 02:52N 48°38' W 002°29'0 0.0
2017-Nov-14 12:33N 48°38' W 002°29'0 0.0
2017-Nov-14 10:43N 48°38' W 002°29'3 6.1
2017-Nov-14 10:10N 48°41' W 002°27'2 2.0
2017-Nov-14 09:04N 48°43' W 002°25'0 0.7
2017-Nov-14 08:55N 48°43' W 002°25'1 3.4
2017-Nov-14 08:30N 48°43' W 002°23'1 2.0
2017-Nov-14 07:58N 48°43' W 002°24'4 1.1
2017-Nov-14 04:10N 48°39' W 002°29'  
2017-Nov-10 04:49N 48°45' W 002°12'3 8.4
2017-Nov-10 04:27N 48°44' W 002°17'4 8.8
2017-Nov-10 04:00N 48°43' W 002°22'2 3.4
2017-Nov-10 03:27N 48°43' W 002°25'1 1.1
2017-Nov-10 02:59N 48°43' W 002°26'  

Dump ship's entire track history